Decoded Metar for PALP (NUIQSUT VILLAGE in AK, USA) (IATA:N/A) | Meteo·Mobile Aviation Weather
aviador You're here:

PALP Decoded Metar

NUIQSUT VILLAGE in AK, USA
Report Time2019-01-16 16:45:00
UTC Time2019-01-16 17:59:30
Flight Rules Old
WindCalm
Visibility9999 m
Phenomena:N/A
Clouds:N/A
Expected CloudBase > 1,200 ft AGL from Temp-Dew spread
CeilingNone
Temp-24°C (ISA -39)
Dew Point-27°C (76% RH)
AAT-27.8°C
QNH1016 hPa
Density Alt-5,121 ft
Elevation16 ft
Report Wrong Elevation
Raw Report
PALP 161645Z 00000KT 15SM SKC M24/M27 A3000=

Extra information for PALP:More info

Metar Taf Metar & Taf Last 4 Metars F.Rules Stats Wind Profile Meteogram Temp Stats Airport Information Weather charts Add Link Nearby VenuesMetar ALERT Operation Metar Decoded Social comments

AIRNAV info for PALP